createdAt,value
2022-12-03T00:00:11.884Z,0.20
2022-12-03T00:01:45.782Z,0.20
2022-12-03T00:03:19.165Z,0.10
2022-12-03T00:04:51.687Z,0.20
2022-12-03T00:06:30.149Z,0.20
2022-12-03T00:08:06.232Z,0.20
2022-12-03T00:09:38.364Z,0.20
2022-12-03T00:11:11.453Z,0.30
2022-12-03T00:12:44.524Z,0.20
2022-12-03T00:14:17.608Z,0.20
2022-12-03T00:15:49.897Z,0.20
2022-12-03T00:17:22.996Z,0.20
2022-12-03T00:18:56.237Z,0.20
2022-12-03T00:20:29.290Z,0.20
2022-12-03T00:22:03.705Z,0.20
2022-12-03T00:23:41.772Z,0.20
2022-12-03T00:25:15.775Z,0.20
2022-12-03T00:26:48.803Z,0.20
2022-12-03T00:28:21.901Z,0.10
2022-12-03T00:29:54.991Z,0.10
2022-12-03T00:31:28.162Z,0.10
2022-12-03T00:33:01.301Z,0.10
2022-12-03T00:34:34.576Z,0.10
2022-12-03T00:36:08.457Z,0.10
2022-12-03T00:37:42.938Z,0.10
2022-12-03T00:39:16.147Z,0.10
2022-12-03T00:40:48.251Z,0.10
2022-12-03T00:42:21.321Z,0.10
2022-12-03T00:43:57.601Z,0.10
2022-12-03T00:45:30.681Z,0.10
2022-12-03T00:47:03.857Z,0.10
2022-12-03T00:48:37.432Z,0.10
2022-12-03T00:50:11.425Z,0.10
2022-12-03T00:51:44.477Z,0.10
2022-12-03T00:53:18.891Z,0.10
2022-12-03T00:54:52.295Z,0.20
2022-12-03T00:56:25.501Z,0.10
2022-12-03T00:57:58.569Z,0.20
2022-12-03T00:59:31.629Z,0.20
2022-12-03T01:01:04.859Z,0.20
2022-12-03T01:02:37.973Z,0.10
2022-12-03T01:04:11.159Z,0.10
2022-12-03T01:05:44.261Z,0.20
2022-12-03T01:07:17.414Z,0.20
2022-12-03T01:08:51.858Z,0.20
2022-12-03T01:10:25.029Z,0.20
2022-12-03T01:11:57.091Z,0.20
2022-12-03T01:13:30.166Z,0.20
2022-12-03T01:15:03.263Z,0.30
2022-12-03T01:16:37.103Z,0.20
2022-12-03T01:18:10.204Z,0.20
2022-12-03T01:19:47.989Z,0.20
2022-12-03T01:21:21.636Z,0.20
2022-12-03T01:22:54.920Z,0.20
2022-12-03T01:24:29.411Z,0.20
2022-12-03T01:26:02.495Z,0.20
2022-12-03T01:27:35.624Z,0.20
2022-12-03T01:29:07.795Z,0.20
2022-12-03T01:30:55.019Z,0.20
2022-12-03T01:32:28.131Z,0.20
2022-12-03T01:34:00.284Z,0.20
2022-12-03T01:35:33.325Z,0.20
2022-12-03T01:37:06.405Z,0.20
2022-12-03T01:38:39.431Z,0.20
2022-12-03T01:40:17.529Z,0.20
2022-12-03T01:41:51.683Z,0.20
2022-12-03T01:43:24.855Z,0.20
2022-12-03T01:44:59.494Z,0.20
2022-12-03T01:46:37.667Z,0.20
2022-12-03T01:48:13.763Z,0.20
2022-12-03T01:49:50.113Z,0.10
2022-12-03T01:51:23.715Z,0.10
2022-12-03T01:53:01.607Z,0.10
2022-12-03T01:54:40.635Z,0.10
2022-12-03T01:56:16.912Z,0.10
2022-12-03T01:57:52.432Z,0.10
2022-12-03T01:59:35.533Z,0.10
2022-12-03T02:01:13.569Z,0.30
2022-12-03T02:02:47.931Z,0.10
2022-12-03T02:04:22.887Z,0.10
2022-12-03T02:05:56.895Z,0.20
2022-12-03T02:07:32.736Z,0.20
2022-12-03T02:09:08.536Z,0.10
2022-12-03T02:10:41.700Z,0.10
2022-12-03T02:12:18.213Z,0.20
2022-12-03T02:13:55.950Z,0.20
2022-12-03T02:15:30.161Z,0.20
2022-12-03T02:17:03.284Z,0.20
2022-12-03T02:18:36.388Z,0.20
2022-12-03T02:20:11.506Z,0.20
2022-12-03T02:21:52.241Z,0.20
2022-12-03T02:23:31.942Z,0.20
2022-12-03T02:25:10.725Z,0.40
2022-12-03T02:26:43.866Z,0.20
2022-12-03T02:28:17.094Z,0.30
2022-12-03T02:29:49.250Z,0.30
2022-12-03T02:31:22.979Z,0.30
2022-12-03T02:32:56.830Z,0.30
2022-12-03T02:34:38.512Z,0.40
2022-12-03T02:36:12.391Z,0.30
2022-12-03T02:37:47.307Z,0.30
2022-12-03T02:39:20.392Z,0.30
2022-12-03T02:40:57.738Z,0.30
2022-12-03T02:42:36.357Z,0.30
2022-12-03T02:44:10.451Z,0.30
2022-12-03T02:45:45.492Z,0.30
2022-12-03T02:47:18.073Z,0.30
2022-12-03T02:48:51.288Z,0.20
2022-12-03T02:50:28.513Z,0.20
2022-12-03T02:52:01.643Z,0.20
2022-12-03T02:53:38.193Z,0.30
2022-12-03T02:55:13.405Z,0.30
2022-12-03T02:56:46.906Z,0.40
2022-12-03T02:58:21.232Z,0.30
2022-12-03T02:59:53.374Z,0.50
2022-12-03T03:01:26.620Z,0.40
2022-12-03T03:03:00.283Z,0.30
2022-12-03T03:04:32.634Z,0.40
2022-12-03T03:06:09.147Z,0.30
2022-12-03T03:07:42.463Z,0.30
2022-12-03T03:09:15.879Z,0.30
2022-12-03T03:10:49.302Z,0.40
2022-12-03T03:12:23.379Z,0.40
2022-12-03T03:13:56.728Z,0.40
2022-12-03T03:15:29.853Z,0.40
2022-12-03T03:17:03.050Z,0.40
2022-12-03T03:18:35.504Z,0.40
2022-12-03T03:20:10.840Z,0.40
2022-12-03T03:21:44.095Z,0.40
2022-12-03T03:23:20.070Z,0.40
2022-12-03T03:24:53.369Z,0.40
2022-12-03T03:26:27.126Z,0.40
2022-12-03T03:28:02.137Z,0.40
2022-12-03T03:29:35.924Z,0.40
2022-12-03T03:31:11.297Z,0.40
2022-12-03T03:32:44.642Z,0.30
2022-12-03T03:34:18.570Z,0.40
2022-12-03T03:35:50.939Z,0.40
2022-12-03T03:37:25.117Z,0.40
2022-12-03T03:38:58.251Z,0.40
2022-12-03T03:40:31.443Z,0.40
2022-12-03T03:42:04.689Z,0.40
2022-12-03T03:43:42.494Z,0.40
2022-12-03T03:45:16.139Z,0.40
2022-12-03T03:46:49.695Z,0.40
2022-12-03T03:48:22.431Z,0.40
2022-12-03T03:49:55.692Z,0.50
2022-12-03T03:51:29.050Z,0.50
2022-12-03T03:53:04.607Z,0.50
2022-12-03T03:54:38.624Z,0.40
2022-12-03T03:56:12.828Z,0.50
2022-12-03T03:57:46.270Z,0.50
2022-12-03T03:59:20.725Z,0.50
2022-12-03T04:00:52.962Z,0.40
2022-12-03T04:02:27.911Z,0.40
2022-12-03T04:04:01.214Z,0.40
2022-12-03T04:05:33.707Z,0.40
2022-12-03T04:07:06.798Z,0.40
2022-12-03T04:08:39.856Z,0.40
2022-12-03T04:10:31.233Z,0.50
2022-12-03T04:12:22.491Z,0.50
2022-12-03T04:13:55.576Z,0.50
2022-12-03T04:15:30.186Z,0.50
2022-12-03T04:17:03.341Z,0.50
2022-12-03T04:18:44.427Z,0.50
2022-12-03T04:20:17.557Z,0.50
2022-12-03T04:22:04.546Z,0.50
2022-12-03T04:23:36.592Z,0.50
2022-12-03T04:25:28.569Z,0.50
2022-12-03T04:27:19.252Z,0.60
2022-12-03T04:28:52.380Z,0.60
2022-12-03T04:30:25.517Z,0.60
2022-12-03T04:32:18.148Z,0.50
2022-12-03T04:34:08.730Z,0.60
2022-12-03T04:35:44.891Z,0.60
2022-12-03T04:37:18.134Z,0.70
2022-12-03T04:38:50.218Z,0.60
2022-12-03T04:40:40.772Z,0.60
2022-12-03T04:42:13.932Z,0.60
2022-12-03T04:44:00.864Z,0.60
2022-12-03T04:45:33.962Z,0.60
2022-12-03T04:47:11.488Z,0.60
2022-12-03T04:48:43.554Z,0.60
2022-12-03T04:50:18.027Z,0.60
2022-12-03T04:51:50.205Z,0.60
2022-12-03T04:53:23.330Z,0.60
2022-12-03T04:54:56.615Z,0.50
2022-12-03T04:56:28.947Z,0.50
2022-12-03T04:58:02.004Z,0.50
2022-12-03T04:59:35.921Z,0.50
2022-12-03T05:01:08.058Z,0.50
2022-12-03T05:02:42.634Z,0.50
2022-12-03T05:04:16.563Z,0.50
2022-12-03T05:05:49.796Z,0.50
2022-12-03T05:07:22.863Z,0.50
2022-12-03T05:08:54.944Z,0.60
2022-12-03T05:10:28.052Z,0.60
2022-12-03T05:12:01.193Z,0.50
2022-12-03T05:13:34.280Z,0.60
2022-12-03T05:15:08.346Z,0.50
2022-12-03T05:16:41.704Z,0.50
2022-12-03T05:18:16.196Z,0.50
2022-12-03T05:20:06.922Z,0.60
2022-12-03T05:21:39.970Z,0.50
2022-12-03T05:23:13.833Z,0.50
2022-12-03T05:24:46.883Z,0.50
2022-12-03T05:26:20.181Z,0.50
2022-12-03T05:27:52.219Z,0.60
2022-12-03T05:29:25.280Z,0.60
2022-12-03T05:30:58.362Z,0.60
2022-12-03T05:32:31.489Z,0.60
2022-12-03T05:34:05.939Z,0.60
2022-12-03T05:35:38.075Z,0.60
2022-12-03T05:37:11.130Z,0.60
2022-12-03T05:38:44.252Z,0.60
2022-12-03T05:40:16.650Z,0.60
2022-12-03T05:42:06.172Z,0.60
2022-12-03T05:43:39.225Z,0.60
2022-12-03T05:45:11.308Z,0.60
2022-12-03T05:46:44.455Z,0.60
2022-12-03T05:48:17.194Z,0.60
2022-12-03T05:49:51.623Z,0.60
2022-12-03T05:51:24.912Z,0.60
2022-12-03T05:52:58.771Z,0.60
2022-12-03T05:54:32.194Z,0.60
2022-12-03T05:56:05.584Z,0.60
2022-12-03T05:57:37.840Z,0.60
2022-12-03T05:59:10.920Z,0.60
2022-12-03T06:00:44.000Z,0.60
2022-12-03T06:02:17.116Z,0.60
2022-12-03T06:03:50.569Z,0.50
2022-12-03T06:05:24.670Z,0.50
2022-12-03T06:06:57.751Z,0.50
2022-12-03T06:08:30.814Z,0.50
2022-12-03T06:10:03.078Z,0.60
2022-12-03T06:11:37.150Z,0.50
2022-12-03T06:13:09.256Z,0.60
2022-12-03T06:14:42.504Z,0.60
2022-12-03T06:16:15.919Z,0.50
2022-12-03T06:17:49.022Z,0.50
2022-12-03T06:19:22.109Z,0.60
2022-12-03T06:20:56.701Z,0.60
2022-12-03T06:22:29.968Z,0.50
2022-12-03T06:24:03.016Z,0.50
2022-12-03T06:25:36.169Z,0.50
2022-12-03T06:27:09.441Z,0.50
2022-12-03T06:28:46.240Z,0.50
2022-12-03T06:30:19.519Z,0.50
2022-12-03T06:31:52.587Z,0.50
2022-12-03T06:33:25.653Z,0.50
2022-12-03T06:34:58.995Z,0.50
2022-12-03T06:36:33.452Z,0.50
2022-12-03T06:38:06.561Z,0.50
2022-12-03T06:39:38.629Z,0.50
2022-12-03T06:41:11.698Z,0.50
2022-12-03T06:42:45.025Z,0.50
2022-12-03T06:44:18.152Z,0.50
2022-12-03T06:45:51.191Z,0.50
2022-12-03T06:47:24.317Z,0.60
2022-12-03T06:48:57.372Z,0.50
2022-12-03T06:50:30.673Z,0.60
2022-12-03T06:52:04.632Z,0.60
2022-12-03T06:53:37.753Z,0.50
2022-12-03T06:55:11.257Z,0.60
2022-12-03T06:56:45.481Z,0.60
2022-12-03T06:58:19.032Z,0.60
2022-12-03T06:59:52.498Z,0.60
2022-12-03T07:01:26.097Z,0.70
2022-12-03T07:02:59.299Z,0.60
2022-12-03T07:04:32.442Z,0.60
2022-12-03T07:06:05.700Z,0.60
2022-12-03T07:07:40.192Z,0.60
2022-12-03T07:09:13.334Z,0.60
2022-12-03T07:10:46.358Z,0.60
2022-12-03T07:12:19.484Z,0.60
2022-12-03T07:13:52.606Z,0.60
2022-12-03T07:15:25.694Z,0.60
2022-12-03T07:16:58.749Z,0.70
2022-12-03T07:18:31.817Z,0.70
2022-12-03T07:20:05.848Z,0.70
2022-12-03T07:21:39.157Z,0.70
2022-12-03T07:23:13.550Z,0.70
2022-12-03T07:24:46.686Z,0.80
2022-12-03T07:26:19.289Z,0.70
2022-12-03T07:27:52.496Z,0.80
2022-12-03T07:29:25.651Z,0.90
2022-12-03T07:30:58.930Z,0.90
2022-12-03T07:32:32.196Z,0.90
2022-12-03T07:34:05.285Z,0.90
2022-12-03T07:35:38.393Z,0.80
2022-12-03T07:37:11.451Z,0.80
2022-12-03T07:38:48.022Z,0.80
2022-12-03T07:40:21.994Z,0.80
2022-12-03T07:41:55.018Z,0.80
2022-12-03T07:43:28.148Z,0.80
2022-12-03T07:45:01.297Z,0.80
2022-12-03T07:46:34.448Z,0.90
2022-12-03T07:48:07.748Z,0.90
2022-12-03T07:49:41.176Z,0.80
2022-12-03T07:51:15.389Z,0.80
2022-12-03T07:52:48.632Z,0.90
2022-12-03T07:54:23.314Z,0.90
2022-12-03T07:55:56.359Z,0.90
2022-12-03T07:57:29.528Z,0.90
2022-12-03T07:59:02.657Z,1.00
2022-12-03T08:00:35.932Z,0.90
2022-12-03T08:02:10.198Z,1.00
2022-12-03T08:03:43.934Z,1.00
2022-12-03T08:05:17.145Z,1.00
2022-12-03T08:06:50.360Z,1.10
2022-12-03T08:08:23.504Z,1.10
2022-12-03T08:09:58.276Z,1.10
2022-12-03T08:11:31.383Z,1.10
2022-12-03T08:13:06.175Z,1.20
2022-12-03T08:14:39.616Z,1.20
2022-12-03T08:16:18.520Z,1.20
2022-12-03T08:17:55.934Z,1.30
2022-12-03T08:19:29.029Z,1.40
2022-12-03T08:21:02.154Z,1.40
2022-12-03T08:22:35.271Z,1.40
2022-12-03T08:24:15.579Z,1.40
2022-12-03T08:25:51.355Z,1.40
2022-12-03T08:27:24.423Z,1.40
2022-12-03T08:28:57.499Z,1.40
2022-12-03T08:30:30.585Z,1.50
2022-12-03T08:32:04.052Z,1.40
2022-12-03T08:33:37.918Z,1.50
2022-12-03T08:35:13.851Z,1.40
2022-12-03T08:36:47.694Z,1.30
2022-12-03T08:38:23.505Z,1.30
2022-12-03T08:39:56.749Z,1.40
2022-12-03T08:41:47.756Z,1.40
2022-12-03T08:43:24.137Z,1.40
2022-12-03T08:44:57.567Z,1.40
2022-12-03T08:46:31.486Z,1.50
2022-12-03T08:48:15.298Z,1.40
2022-12-03T08:49:54.900Z,1.40
2022-12-03T08:51:28.693Z,1.40
2022-12-03T08:53:16.964Z,1.40
2022-12-03T08:54:54.158Z,1.40
2022-12-03T08:56:30.336Z,1.40
2022-12-03T08:58:23.760Z,1.50
2022-12-03T09:00:01.169Z,1.40
2022-12-03T09:01:39.584Z,1.40
2022-12-03T09:03:17.312Z,1.50
2022-12-03T09:04:52.035Z,1.50
2022-12-03T09:06:25.377Z,1.50
2022-12-03T09:07:58.462Z,1.50
2022-12-03T09:09:31.603Z,1.40
2022-12-03T09:11:04.639Z,1.40
2022-12-03T09:12:39.210Z,1.40
2022-12-03T09:14:18.312Z,1.40
2022-12-03T09:15:51.733Z,1.50
2022-12-03T09:17:24.802Z,1.40
2022-12-03T09:18:57.941Z,1.50
2022-12-03T09:20:31.061Z,1.50
2022-12-03T09:22:04.135Z,1.50
2022-12-03T09:23:37.225Z,1.50
2022-12-03T09:25:10.864Z,1.50
2022-12-03T09:26:43.992Z,1.40
2022-12-03T09:28:18.410Z,1.40
2022-12-03T09:29:52.107Z,1.50
2022-12-03T09:31:25.509Z,1.50
2022-12-03T09:33:00.095Z,1.50
2022-12-03T09:34:34.719Z,1.60
2022-12-03T09:36:08.000Z,1.60
2022-12-03T09:37:41.119Z,1.60
2022-12-03T09:39:14.198Z,1.70
2022-12-03T09:40:48.788Z,1.70
2022-12-03T09:42:22.083Z,1.80
2022-12-03T09:44:05.724Z,1.70
2022-12-03T09:45:39.541Z,1.70
2022-12-03T09:47:12.808Z,1.80
2022-12-03T09:48:46.494Z,1.80
2022-12-03T09:50:22.604Z,1.80
2022-12-03T09:51:57.436Z,1.80
2022-12-03T09:53:30.734Z,1.80
2022-12-03T09:55:12.880Z,1.90
2022-12-03T09:56:46.075Z,1.90
2022-12-03T09:58:20.407Z,1.90
2022-12-03T09:59:55.072Z,2.00
2022-12-03T10:01:30.555Z,1.90
2022-12-03T10:03:06.039Z,1.90
2022-12-03T10:04:39.211Z,2.00
2022-12-03T10:06:17.482Z,2.00
2022-12-03T10:07:52.414Z,2.00
2022-12-03T10:09:27.231Z,2.10
2022-12-03T10:11:00.505Z,1.90
2022-12-03T10:12:33.936Z,2.00
2022-12-03T10:14:08.991Z,2.10
2022-12-03T10:15:43.522Z,2.00
2022-12-03T10:17:17.465Z,2.10
2022-12-03T10:18:53.221Z,2.10
2022-12-03T10:20:27.420Z,2.10
2022-12-03T10:22:00.594Z,2.10
2022-12-03T10:23:33.702Z,2.20
2022-12-03T10:25:10.120Z,2.20
2022-12-03T10:26:43.604Z,2.20
2022-12-03T10:28:29.063Z,2.30
2022-12-03T10:30:03.918Z,2.20
2022-12-03T10:31:38.369Z,2.20
2022-12-03T10:33:18.825Z,2.30
2022-12-03T10:34:57.564Z,2.20
2022-12-03T10:36:31.078Z,2.40
2022-12-03T10:38:06.120Z,2.40
2022-12-03T10:39:56.720Z,2.40
2022-12-03T10:41:30.138Z,2.50
2022-12-03T10:43:21.264Z,2.50
2022-12-03T10:45:17.138Z,2.60
2022-12-03T10:47:08.326Z,2.70
2022-12-03T10:48:41.512Z,2.90
2022-12-03T10:50:20.151Z,3.10
2022-12-03T10:51:53.447Z,3.10
2022-12-03T10:53:29.737Z,3.10
2022-12-03T10:55:03.201Z,3.00
2022-12-03T10:56:36.900Z,3.00
2022-12-03T10:58:19.789Z,3.10
2022-12-03T10:59:52.941Z,3.10
2022-12-03T11:01:27.635Z,3.00
2022-12-03T11:03:02.640Z,3.10
2022-12-03T11:04:37.287Z,3.10
2022-12-03T11:06:15.303Z,3.00
2022-12-03T11:07:48.799Z,3.00
2022-12-03T11:09:25.591Z,3.00
2022-12-03T11:11:01.157Z,3.10
2022-12-03T11:12:35.613Z,3.10
2022-12-03T11:14:11.885Z,3.00
2022-12-03T11:15:46.788Z,3.00
2022-12-03T11:17:45.175Z,3.00
2022-12-03T11:19:41.542Z,3.10
2022-12-03T11:21:15.872Z,3.00
2022-12-03T11:22:50.043Z,3.10
2022-12-03T11:24:23.119Z,3.00
2022-12-03T11:25:56.264Z,2.90
2022-12-03T11:27:29.374Z,3.00
2022-12-03T11:29:02.492Z,3.00
2022-12-03T11:31:02.197Z,3.00
2022-12-03T11:33:06.224Z,2.60
2022-12-03T11:34:44.106Z,2.50
2022-12-03T11:36:36.433Z,2.50
2022-12-03T11:38:52.189Z,2.40
2022-12-03T11:40:34.781Z,2.50
2022-12-03T11:42:38.488Z,2.50
2022-12-03T11:44:31.300Z,2.60
2022-12-03T11:46:10.429Z,2.60
2022-12-03T11:47:45.435Z,2.60
2022-12-03T11:49:40.221Z,2.70
2022-12-03T11:51:16.229Z,2.60
2022-12-03T11:52:53.528Z,2.60
2022-12-03T11:54:27.026Z,2.60
2022-12-03T11:56:08.844Z,2.50
2022-12-03T11:57:43.251Z,2.40
2022-12-03T11:59:17.363Z,2.30
2022-12-03T12:00:52.102Z,2.40
2022-12-03T12:02:26.619Z,2.30
2022-12-03T12:03:59.788Z,2.40
2022-12-03T12:05:34.586Z,2.30
2022-12-03T12:07:08.998Z,2.20
2022-12-03T12:08:55.439Z,2.10
2022-12-03T12:10:47.085Z,2.20
2022-12-03T12:12:21.256Z,2.30
2022-12-03T12:13:56.825Z,2.20
2022-12-03T12:15:50.693Z,2.20
2022-12-03T12:17:32.225Z,2.40
2022-12-03T12:19:44.021Z,2.40
2022-12-03T12:21:47.656Z,2.30
2022-12-03T12:23:30.225Z,2.20
2022-12-03T12:25:04.030Z,2.40
2022-12-03T12:26:37.235Z,2.40
2022-12-03T12:28:10.398Z,2.50
2022-12-03T12:29:45.813Z,2.60
2022-12-03T12:31:19.106Z,2.60
2022-12-03T12:32:53.621Z,2.60
2022-12-03T12:34:27.026Z,2.70
2022-12-03T12:36:00.125Z,2.80
2022-12-03T12:37:35.991Z,2.70
2022-12-03T12:39:13.644Z,2.80
2022-12-03T12:40:49.259Z,2.80
2022-12-03T12:42:31.665Z,3.00
2022-12-03T12:44:09.608Z,3.10
2022-12-03T12:45:44.359Z,3.10
2022-12-03T12:47:17.514Z,3.10
2022-12-03T12:48:51.876Z,3.10
2022-12-03T12:50:27.416Z,3.10
2022-12-03T12:52:01.232Z,3.20
2022-12-03T12:53:36.404Z,3.20
2022-12-03T12:55:14.915Z,3.20
2022-12-03T12:56:49.982Z,3.10
2022-12-03T12:58:23.285Z,3.10
2022-12-03T12:59:56.507Z,3.10
2022-12-03T13:01:31.185Z,3.10
2022-12-03T13:03:07.956Z,3.10
2022-12-03T13:04:41.075Z,3.10
2022-12-03T13:06:16.945Z,3.00
2022-12-03T13:07:50.305Z,3.10
2022-12-03T13:09:25.324Z,3.00
2022-12-03T13:11:01.683Z,3.00
2022-12-03T13:12:34.851Z,3.00
2022-12-03T13:14:16.280Z,3.00
2022-12-03T13:16:08.434Z,3.00
2022-12-03T13:17:41.515Z,2.90
2022-12-03T13:19:22.821Z,2.90
2022-12-03T13:20:56.815Z,2.90
2022-12-03T13:22:30.090Z,3.00
2022-12-03T13:24:03.191Z,3.00
2022-12-03T13:25:59.244Z,3.00
2022-12-03T13:27:33.678Z,3.00
2022-12-03T13:29:15.114Z,3.00
2022-12-03T13:30:47.484Z,3.00
2022-12-03T13:32:22.588Z,3.00
2022-12-03T13:33:57.433Z,3.00
2022-12-03T13:35:35.220Z,3.00
2022-12-03T13:37:15.123Z,3.00
2022-12-03T13:38:48.760Z,3.00
2022-12-03T13:40:27.209Z,3.00
2022-12-03T13:42:31.439Z,3.00
2022-12-03T13:44:17.668Z,3.00
2022-12-03T13:45:52.166Z,3.00
2022-12-03T13:47:25.417Z,3.00
2022-12-03T13:49:01.760Z,3.00
2022-12-03T13:50:37.421Z,3.00
2022-12-03T13:52:15.953Z,3.00
2022-12-03T13:53:49.044Z,3.00
2022-12-03T13:55:27.661Z,3.10
2022-12-03T13:57:02.635Z,3.00
2022-12-03T13:58:35.686Z,3.00
2022-12-03T14:00:12.076Z,3.10
2022-12-03T14:01:46.684Z,3.00
2022-12-03T14:03:19.938Z,3.00
2022-12-03T14:04:58.425Z,3.00
2022-12-03T14:06:33.807Z,3.00
2022-12-03T14:08:07.364Z,3.00
2022-12-03T14:09:40.454Z,3.00
2022-12-03T14:11:34.220Z,3.00
2022-12-03T14:13:06.323Z,3.00
2022-12-03T14:14:39.410Z,2.90
2022-12-03T14:16:13.907Z,2.90
2022-12-03T14:17:47.021Z,2.90
2022-12-03T14:19:20.120Z,2.90
2022-12-03T14:20:53.162Z,2.90
2022-12-03T14:22:26.315Z,2.90
2022-12-03T14:23:59.374Z,2.90
2022-12-03T14:25:32.491Z,2.80
2022-12-03T14:27:05.650Z,2.80
2022-12-03T14:28:38.771Z,2.80
2022-12-03T14:30:12.746Z,2.80
2022-12-03T14:31:47.423Z,2.80
2022-12-03T14:33:20.496Z,2.90
2022-12-03T14:34:53.770Z,2.80
2022-12-03T14:36:26.839Z,2.80
2022-12-03T14:37:59.953Z,2.80
2022-12-03T14:39:33.055Z,2.80
2022-12-03T14:41:27.044Z,2.80
2022-12-03T14:42:59.124Z,2.70
2022-12-03T14:44:33.935Z,2.80
2022-12-03T14:46:07.312Z,2.80
2022-12-03T14:47:41.764Z,2.70
2022-12-03T14:49:14.915Z,2.80
2022-12-03T14:50:48.071Z,2.80
2022-12-03T14:52:21.558Z,2.80
2022-12-03T14:53:54.650Z,2.80
2022-12-03T14:55:27.678Z,2.80
2022-12-03T14:57:00.920Z,2.70
2022-12-03T14:58:34.504Z,2.70
2022-12-03T15:00:08.701Z,2.70
2022-12-03T15:01:41.855Z,2.70
2022-12-03T15:03:16.353Z,2.70
2022-12-03T15:04:49.586Z,2.70
2022-12-03T15:06:22.643Z,2.70
2022-12-03T15:07:55.834Z,2.70
2022-12-03T15:09:28.948Z,2.70
2022-12-03T15:11:02.454Z,2.70
2022-12-03T15:12:35.524Z,2.70
2022-12-03T15:14:08.603Z,2.80
2022-12-03T15:15:41.806Z,2.70
2022-12-03T15:17:14.976Z,2.80
2022-12-03T15:18:49.488Z,2.70
2022-12-03T15:20:22.571Z,2.60
2022-12-03T15:21:55.658Z,2.60
2022-12-03T15:23:29.174Z,2.60
2022-12-03T15:25:03.410Z,2.60
2022-12-03T15:26:36.500Z,2.60
2022-12-03T15:28:09.811Z,2.60
2022-12-03T15:29:42.861Z,2.70
2022-12-03T15:31:15.956Z,2.60
2022-12-03T15:32:49.102Z,2.60
2022-12-03T15:34:23.740Z,2.60
2022-12-03T15:35:56.807Z,2.60
2022-12-03T15:37:30.046Z,2.70
2022-12-03T15:39:03.235Z,2.60
2022-12-03T15:40:38.059Z,2.60
2022-12-03T15:42:12.373Z,2.60
2022-12-03T15:43:45.432Z,2.60
2022-12-03T15:45:19.971Z,2.60
2022-12-03T15:46:53.019Z,2.60
2022-12-03T15:48:26.093Z,2.60
2022-12-03T15:50:00.522Z,2.60
2022-12-03T15:51:34.635Z,2.60
2022-12-03T15:53:07.676Z,2.60
2022-12-03T15:54:44.258Z,2.60
2022-12-03T15:56:17.606Z,2.60
2022-12-03T15:57:50.711Z,2.60
2022-12-03T15:59:23.808Z,2.60
2022-12-03T16:00:56.842Z,2.60
2022-12-03T16:02:33.858Z,2.70
2022-12-03T16:04:07.016Z,2.60
2022-12-03T16:05:41.486Z,2.60
2022-12-03T16:07:14.572Z,2.70
2022-12-03T16:08:48.156Z,2.60
2022-12-03T16:10:21.984Z,2.60
2022-12-03T16:11:55.538Z,2.60
2022-12-03T16:13:28.598Z,2.70
2022-12-03T16:15:01.723Z,2.70
2022-12-03T16:16:34.877Z,2.70
2022-12-03T16:18:08.001Z,2.70
2022-12-03T16:19:41.508Z,2.70
2022-12-03T16:21:15.918Z,2.70
2022-12-03T16:22:49.069Z,2.70
2022-12-03T16:24:22.133Z,2.70
2022-12-03T16:25:55.209Z,2.70
2022-12-03T16:27:28.292Z,2.70
2022-12-03T16:29:01.443Z,2.70
2022-12-03T16:30:34.636Z,2.70
2022-12-03T16:32:08.094Z,2.70
2022-12-03T16:33:41.135Z,2.70
2022-12-03T16:35:14.224Z,2.70
2022-12-03T16:36:48.681Z,2.70
2022-12-03T16:38:22.008Z,2.60
2022-12-03T16:39:55.353Z,2.70
2022-12-03T16:41:28.790Z,2.60
2022-12-03T16:43:03.319Z,2.70
2022-12-03T16:44:54.627Z,2.70
2022-12-03T16:46:27.807Z,2.70
2022-12-03T16:48:02.565Z,2.70
2022-12-03T16:49:35.612Z,2.70
2022-12-03T16:51:08.793Z,2.70
2022-12-03T16:52:43.414Z,2.80
2022-12-03T16:54:16.487Z,2.80
2022-12-03T16:55:49.540Z,2.70
2022-12-03T16:57:22.620Z,2.70
2022-12-03T16:58:57.477Z,2.60
2022-12-03T17:00:30.768Z,2.70
2022-12-03T17:02:03.907Z,2.70
2022-12-03T17:03:38.221Z,2.60
2022-12-03T17:05:11.295Z,2.70
2022-12-03T17:06:44.390Z,2.70
2022-12-03T17:08:18.899Z,2.70
2022-12-03T17:09:52.828Z,2.70
2022-12-03T17:11:26.182Z,2.70
2022-12-03T17:13:15.015Z,2.70
2022-12-03T17:14:48.074Z,2.70
2022-12-03T17:16:21.208Z,2.70
2022-12-03T17:17:54.371Z,2.70
2022-12-03T17:19:27.539Z,2.70
2022-12-03T17:21:00.618Z,2.70
2022-12-03T17:22:33.751Z,2.70
2022-12-03T17:24:09.005Z,2.70
2022-12-03T17:25:42.080Z,2.70
2022-12-03T17:27:15.691Z,2.70
2022-12-03T17:28:48.881Z,2.70
2022-12-03T17:30:22.358Z,2.70
2022-12-03T17:31:55.587Z,2.70
2022-12-03T17:33:28.688Z,2.80
2022-12-03T17:35:01.832Z,2.70
2022-12-03T17:36:34.898Z,2.80
2022-12-03T17:38:09.071Z,2.80
2022-12-03T17:39:43.580Z,2.80
2022-12-03T17:41:16.759Z,2.80
2022-12-03T17:42:49.807Z,2.80
2022-12-03T17:44:22.884Z,2.90
2022-12-03T17:45:55.902Z,2.80
2022-12-03T17:47:29.008Z,2.90
2022-12-03T17:49:02.535Z,2.90
2022-12-03T17:50:35.728Z,2.90
2022-12-03T17:52:08.823Z,3.00
2022-12-03T17:53:41.934Z,3.00
2022-12-03T17:55:26.471Z,3.00
2022-12-03T17:57:06.970Z,3.10
2022-12-03T17:58:40.002Z,3.10
2022-12-03T18:00:14.008Z,3.10
2022-12-03T18:01:48.123Z,3.10
2022-12-03T18:03:21.234Z,3.10
2022-12-03T18:04:54.298Z,3.10
2022-12-03T18:06:27.386Z,3.00
2022-12-03T18:08:00.510Z,3.00
2022-12-03T18:09:33.702Z,3.00
2022-12-03T18:11:08.252Z,3.00
2022-12-03T18:12:41.280Z,3.00
2022-12-03T18:14:14.357Z,3.10
2022-12-03T18:15:47.459Z,3.00
2022-12-03T18:17:21.054Z,3.10
2022-12-03T18:18:57.123Z,3.10
2022-12-03T18:20:31.426Z,3.10
2022-12-03T18:22:04.608Z,3.10
2022-12-03T18:23:37.837Z,3.10
2022-12-03T18:25:11.682Z,3.00
2022-12-03T18:26:46.145Z,3.10
2022-12-03T18:28:19.282Z,3.10
2022-12-03T18:29:52.954Z,2.90
2022-12-03T18:31:26.303Z,3.40
2022-12-03T18:32:59.408Z,3.10
2022-12-03T18:34:32.539Z,3.10
2022-12-03T18:36:08.446Z,3.00
2022-12-03T18:37:45.535Z,3.10
2022-12-03T18:39:25.715Z,3.00
2022-12-03T18:40:58.944Z,3.00
2022-12-03T18:42:33.369Z,3.10
2022-12-03T18:44:10.906Z,3.00
2022-12-03T18:45:44.389Z,3.00
2022-12-03T18:47:19.715Z,3.10
2022-12-03T18:48:52.884Z,3.00
2022-12-03T18:50:25.961Z,3.10
2022-12-03T18:51:59.860Z,3.10
2022-12-03T18:53:32.994Z,3.10
2022-12-03T18:55:07.872Z,3.10
2022-12-03T18:56:41.194Z,3.00
2022-12-03T18:58:15.802Z,3.00
2022-12-03T18:59:48.887Z,3.00
2022-12-03T19:01:23.772Z,3.10
2022-12-03T19:03:04.861Z,3.00
2022-12-03T19:04:38.053Z,3.00
2022-12-03T19:06:18.644Z,3.00
2022-12-03T19:07:54.987Z,3.00
2022-12-03T19:09:28.232Z,3.00
2022-12-03T19:11:01.728Z,2.90
2022-12-03T19:12:34.963Z,2.90
2022-12-03T19:14:11.042Z,2.90
2022-12-03T19:15:44.106Z,2.90
2022-12-03T19:17:17.144Z,2.90
2022-12-03T19:18:50.243Z,2.90
2022-12-03T19:20:23.354Z,2.90
2022-12-03T19:21:56.420Z,2.90
2022-12-03T19:23:29.497Z,3.00
2022-12-03T19:25:02.635Z,3.00
2022-12-03T19:26:35.767Z,3.00
2022-12-03T19:28:09.410Z,2.90
2022-12-03T19:29:44.257Z,3.00
2022-12-03T19:31:19.507Z,3.00
2022-12-03T19:32:52.611Z,3.00
2022-12-03T19:34:25.865Z,3.00
2022-12-03T19:36:00.110Z,3.00
2022-12-03T19:37:34.120Z,3.00
2022-12-03T19:39:07.202Z,3.00
2022-12-03T19:40:40.335Z,3.00
2022-12-03T19:42:13.390Z,3.00
2022-12-03T19:43:50.144Z,3.00
2022-12-03T19:45:24.694Z,3.00
2022-12-03T19:46:57.893Z,3.10
2022-12-03T19:48:31.557Z,3.00
2022-12-03T19:50:05.797Z,3.00
2022-12-03T19:51:39.358Z,3.00
2022-12-03T19:53:12.394Z,3.00
2022-12-03T19:54:45.640Z,3.10
2022-12-03T19:56:20.118Z,3.10
2022-12-03T19:57:53.235Z,3.00
2022-12-03T19:59:26.338Z,3.00
2022-12-03T20:01:07.784Z,3.00
2022-12-03T20:02:40.922Z,3.10
2022-12-03T20:04:14.056Z,3.10
2022-12-03T20:05:47.211Z,3.10
2022-12-03T20:07:20.250Z,3.10
2022-12-03T20:08:57.008Z,3.10
2022-12-03T20:10:30.248Z,3.10
2022-12-03T20:12:03.307Z,3.10
2022-12-03T20:13:36.782Z,3.20
2022-12-03T20:15:10.604Z,3.20
2022-12-03T20:16:45.949Z,3.10
2022-12-03T20:18:19.160Z,3.20
2022-12-03T20:19:52.384Z,3.20
2022-12-03T20:21:25.650Z,3.10
2022-12-03T20:22:58.932Z,3.20
2022-12-03T20:24:32.009Z,3.20
2022-12-03T20:26:09.069Z,3.10
2022-12-03T20:27:42.194Z,3.10
2022-12-03T20:29:15.412Z,3.10
2022-12-03T20:30:58.614Z,3.10
2022-12-03T20:32:33.029Z,3.00
2022-12-03T20:34:07.066Z,3.10
2022-12-03T20:35:40.402Z,3.10
2022-12-03T20:37:13.458Z,3.10
2022-12-03T20:38:46.700Z,3.00
2022-12-03T20:40:19.731Z,3.00
2022-12-03T20:41:52.802Z,3.00
2022-12-03T20:43:25.872Z,3.00
2022-12-03T20:44:59.068Z,3.00
2022-12-03T20:46:32.714Z,3.00
2022-12-03T20:48:07.837Z,3.00
2022-12-03T20:49:41.212Z,3.00
2022-12-03T20:51:15.847Z,3.10
2022-12-03T20:53:16.185Z,3.10
2022-12-03T20:54:42.008Z,3.10
2022-12-03T20:56:20.316Z,3.10
2022-12-03T20:57:54.337Z,3.00
2022-12-03T20:59:27.364Z,3.00
2022-12-03T21:01:14.011Z,3.00
2022-12-03T21:02:48.683Z,3.00
2022-12-03T21:04:23.362Z,2.90
2022-12-03T21:06:00.387Z,2.90
2022-12-03T21:07:33.472Z,2.90